Time;durP1;ratioP1;P1;durP2;ratioP2;P2;SDS_P1;SDS_P2;PMS_P1;PMS_P2;Temp;Humidity;BMP_temperature;BMP_pressure;BME280_temperature;BME280_humidity;BME280_pressure;Samples;Min_cycle;Max_cycle;Signal;HPM_P1;HPM_P2
2022/09/19 00:01:21;;;;;;;;;;;;;;;15.44;48.25;99132.56;4485287;31;33324;-64
2022/09/19 00:04:07;;;;;;;;;;;;;;;15.66;48.55;99130.28;4484805;31;34116;-65
2022/09/19 00:06:36;;;;;;;;;;;;;;;16.00;47.48;99128.41;4480826;32;33049;-65
2022/09/19 00:09:04;;;;;;;;;;;;;;;16.16;47.06;99122.22;4483599;31;34241;-65
2022/09/19 00:11:32;;;;;;;;;;;;;;;15.86;47.43;99115.56;4488551;31;32355;-65
2022/09/19 00:13:59;;;;;;;;;;;;;;;15.87;46.90;99117.25;4474919;31;32162;-65
2022/09/19 00:16:28;;;;;;;;;;;;;;;15.63;47.87;99104.47;4483880;31;32885;-65
2022/09/19 00:18:58;;;;;;;;;;;;;;;16.08;47.31;99106.00;4500441;31;33790;-65
2022/09/19 00:21:29;;;;;;;;;;;;;;;15.94;46.67;99095.84;4488915;31;33336;-65
2022/09/19 00:26:45;;;;;;;;;;;;;;;16.06;47.32;99092.69;4495546;31;34897;-65
2022/09/19 00:29:14;;;;;;;;;;;;;;;16.33;46.52;99084.44;4489350;31;34934;-65
2022/09/19 00:31:43;;;;;;;;;;;;;;;16.09;46.60;99080.72;4486400;31;34496;-64
2022/09/19 00:34:11;;;;;;;;;;;;;;;16.11;46.47;99075.97;4493772;31;32925;-65
2022/09/19 00:36:38;;;;;;;;;;;;;;;16.26;46.30;99073.47;4483494;31;33008;-65
2022/09/19 00:39:06;;;;;;;;;;;;;;;16.14;46.79;99074.78;4453054;32;34265;-65
2022/09/19 00:41:33;;;;;;;;;;;;;;;16.30;46.13;99064.84;4451909;32;33758;-65
2022/09/19 00:44:02;;;;;;;;;;;;;;;16.53;45.96;99067.75;4454455;32;32791;-65
2022/09/19 00:46:31;;;;;;;;;;;;;;;16.40;46.00;99072.78;4454549;32;35378;-65
2022/09/19 00:49:00;;;;;;;;;;;;;;;16.51;45.54;99069.75;4452771;32;34175;-64
2022/09/19 00:51:31;;;;;;;;;;;;;;;16.62;45.41;99073.97;4453397;32;33059;-65
2022/09/19 00:54:00;;;;;;;;;;;;;;;16.29;46.38;99079.37;4451714;32;34316;-65
2022/09/19 00:56:27;;;;;;;;;;;;;;;16.31;46.13;99087.31;4453542;32;34113;-65
2022/09/19 00:58:55;;;;;;;;;;;;;;;16.20;46.53;99090.34;4459007;32;34110;-64
2022/09/19 01:01:22;;;;;;;;;;;;;;;15.92;47.43;99077.13;4463429;32;33861;-64
2022/09/19 01:03:52;;;;;;;;;;;;;;;15.83;47.56;99075.44;4458556;32;32801;-64
2022/09/19 01:06:24;;;;;;;;;;;;;;;16.00;47.63;99074.44;4463394;32;35082;-64
2022/09/19 01:09:10;;;;;;;;;;;;;;;16.11;46.68;99067.03;4465365;32;34608;-64
2022/09/19 01:11:57;;;;;;;;;;;;;;;16.18;46.44;99065.34;4460152;32;33505;-64
2022/09/19 01:14:44;;;;;;;;;;;;;;;15.99;46.36;99071.94;4457672;32;32830;-64
2022/09/19 01:17:17;;;;;;;;;;;;;;;16.01;46.40;99070.72;4454416;32;34014;-65
2022/09/19 01:20:04;;;;;;;;;;;;;;;15.53;47.87;99077.63;4460102;32;32801;-64
2022/09/19 01:22:51;;;;;;;;;;;;;;;15.73;47.11;99080.97;4457951;32;32305;-65
2022/09/19 01:25:33;;;;;;;;;;;;;;;15.69;47.28;99078.75;4463984;32;33970;-65
2022/09/19 01:28:09;;;;;;;;;;;;;;;15.70;47.47;99072.34;4456308;32;34443;-64
2022/09/19 01:30:39;;;;;;;;;;;;;;;15.35;48.25;99063.41;4459631;32;34598;-64
2022/09/19 01:33:08;;;;;;;;;;;;;;;15.43;48.50;99060.75;4451803;32;33745;-63
2022/09/19 01:35:40;;;;;;;;;;;;;;;15.37;49.36;99066.78;4453715;32;33170;-64
2022/09/19 01:38:08;;;;;;;;;;;;;;;14.99;51.00;99063.56;4466176;31;32894;-65
2022/09/19 01:40:35;;;;;;;;;;;;;;;14.44;52.61;99063.81;4478850;32;34413;-65
2022/09/19 01:43:05;;;;;;;;;;;;;;;14.77;51.03;99069.50;4482772;32;33212;-65
2022/09/19 01:45:32;;;;;;;;;;;;;;;15.06;50.27;99047.63;4483707;32;35145;-64
2022/09/19 01:48:10;;;;;;;;;;;;;;;15.35;49.39;99058.88;4475954;31;34150;-64
2022/09/19 01:50:40;;;;;;;;;;;;;;;15.49;49.05;99049.31;4470511;31;35218;-65
2022/09/19 01:53:27;;;;;;;;;;;;;;;15.93;48.26;99042.91;4474278;32;31947;-64
2022/09/19 01:56:03;;;;;;;;;;;;;;;15.88;48.35;99048.78;4478547;32;33190;-64
2022/09/19 01:58:46;;;;;;;;;;;;;;;15.64;49.16;99057.63;4483465;31;32873;-64
2022/09/19 02:01:23;;;;;;;;;;;;;;;16.06;48.34;99054.03;4481978;31;34203;-63
2022/09/19 02:04:03;;;;;;;;;;;;;;;16.23;48.33;99057.59;4468667;32;32558;-63
2022/09/19 02:06:35;;;;;;;;;;;;;;;16.05;48.61;99050.50;4480642;31;34121;-63
2022/09/19 02:09:22;;;;;;;;;;;;;;;15.91;49.08;99039.50;4484083;32;35368;-63
2022/09/19 02:11:52;;;;;;;;;;;;;;;15.77;49.58;99036.44;4480916;31;35004;-63
2022/09/19 02:14:21;;;;;;;;;;;;;;;15.89;49.00;99049.59;4477787;31;33426;-62
2022/09/19 02:17:03;;;;;;;;;;;;;;;15.83;48.01;99068.16;4471984;31;34061;-63
2022/09/19 02:19:32;;;;;;;;;;;;;;;15.80;48.13;99064.97;4470199;32;35685;-62
2022/09/19 02:22:01;;;;;;;;;;;;;;;15.88;46.60;99050.63;4475089;31;35273;-62
2022/09/19 02:24:30;;;;;;;;;;;;;;;15.96;46.15;99058.75;4468883;32;33219;-62
2022/09/19 02:27:09;;;;;;;;;;;;;;;16.05;46.05;99061.31;4472893;32;33914;-63
2022/09/19 02:29:38;;;;;;;;;;;;;;;16.26;45.82;99068.91;4473406;32;34446;-63
2022/09/19 02:32:07;;;;;;;;;;;;;;;16.45;45.18;99069.59;4471139;32;34059;-63
2022/09/19 02:34:35;;;;;;;;;;;;;;;16.49;45.22;99070.94;4479934;31;32082;-63
2022/09/19 02:37:08;;;;;;;;;;;;;;;16.52;45.32;99076.84;4473680;31;35112;-63
2022/09/19 02:39:55;;;;;;;;;;;;;;;16.53;45.29;99074.97;4474746;31;33198;-63
2022/09/19 02:42:36;;;;;;;;;;;;;;;16.51;45.75;99077.88;4484509;31;35398;-63
2022/09/19 02:45:10;;;;;;;;;;;;;;;16.63;46.25;99078.37;4475322;31;33494;-63
2022/09/19 02:47:57;;;;;;;;;;;;;;;16.69;46.21;99075.00;4481975;31;34054;-63
2022/09/19 02:50:30;;;;;;;;;;;;;;;16.46;47.07;99072.13;4476446;31;34907;-63
2022/09/19 02:52:57;;;;;;;;;;;;;;;16.27;47.44;99064.34;4473053;31;33852;-63
2022/09/19 02:55:26;;;;;;;;;;;;;;;16.37;47.47;99064.19;4481515;31;32061;-64
2022/09/19 02:57:54;;;;;;;;;;;;;;;16.51;46.69;99064.34;4480487;32;33926;-64
2022/09/19 03:00:23;;;;;;;;;;;;;;;16.69;46.10;99055.22;4479541;32;34205;-63
2022/09/19 03:02:56;;;;;;;;;;;;;;;16.64;46.53;99060.31;4485702;31;33817;-63
2022/09/19 03:05:25;;;;;;;;;;;;;;;16.62;46.22;99048.81;4482194;31;33665;-63
2022/09/19 03:08:00;;;;;;;;;;;;;;;16.69;46.23;99044.41;4486226;31;34701;-63
2022/09/19 03:10:30;;;;;;;;;;;;;;;16.73;46.25;99048.47;4480325;32;33482;-63
2022/09/19 03:13:00;;;;;;;;;;;;;;;16.62;47.37;99040.72;4478413;31;33142;-63
2022/09/19 03:15:37;;;;;;;;;;;;;;;16.76;46.91;99054.41;4477828;32;31256;-63
2022/09/19 03:18:14;;;;;;;;;;;;;;;16.77;47.41;99055.25;4485478;32;34077;-65
2022/09/19 03:20:46;;;;;;;;;;;;;;;16.56;47.84;99047.63;4480481;32;34251;-64
2022/09/19 03:23:17;;;;;;;;;;;;;;;16.05;49.86;99061.31;4468299;31;35215;-65
2022/09/19 03:25:45;;;;;;;;;;;;;;;16.11;49.70;99057.06;4476742;31;31885;-65
2022/09/19 03:28:12;;;;;;;;;;;;;;;15.74;50.75;99057.53;4485140;31;33943;-65
2022/09/19 03:30:40;;;;;;;;;;;;;;;15.54;52.05;99054.22;4480320;31;34354;-65
2022/09/19 03:33:08;;;;;;;;;;;;;;;15.61;52.24;99053.41;4483303;31;34951;-65
2022/09/19 03:35:36;;;;;;;;;;;;;;;15.57;51.98;99048.50;4475743;31;34449;-63
2022/09/19 03:38:03;;;;;;;;;;;;;;;15.20;53.17;99051.56;4478356;32;34360;-65
2022/09/19 03:40:31;;;;;;;;;;;;;;;14.99;54.31;99057.31;4469854;32;34271;-65
2022/09/19 03:42:59;;;;;;;;;;;;;;;14.54;55.92;99064.63;4485265;32;32847;-65
2022/09/19 03:45:26;;;;;;;;;;;;;;;14.20;57.55;99059.06;4486400;31;33298;-65
2022/09/19 03:47:54;;;;;;;;;;;;;;;14.05;58.93;99057.91;4485140;31;35219;-64
2022/09/19 03:50:21;;;;;;;;;;;;;;;13.67;59.77;99067.94;4482257;31;34019;-65
2022/09/19 03:52:49;;;;;;;;;;;;;;;14.14;57.38;99062.38;4493502;31;34064;-65
2022/09/19 03:55:17;;;;;;;;;;;;;;;14.14;57.37;99063.22;4488897;31;33399;-65
2022/09/19 03:57:44;;;;;;;;;;;;;;;14.78;55.47;99063.94;4500467;31;33779;-66
2022/09/19 04:00:12;;;;;;;;;;;;;;;14.64;55.79;99059.97;4498043;31;35660;-65
2022/09/19 04:02:42;;;;;;;;;;;;;;;14.37;56.16;99060.06;4493538;31;35264;-65
2022/09/19 04:05:13;;;;;;;;;;;;;;;14.74;55.59;99061.72;4484795;31;34480;-65
2022/09/19 04:07:40;;;;;;;;;;;;;;;15.22;53.85;99071.94;4488646;31;33993;-65
2022/09/19 04:10:08;;;;;;;;;;;;;;;15.45;52.95;99064.13;4481452;31;35123;-65
2022/09/19 04:12:36;;;;;;;;;;;;;;;15.71;52.39;99069.47;4490501;31;32939;-65
2022/09/19 04:15:03;;;;;;;;;;;;;;;15.72;52.38;99075.72;4482799;31;34396;-65
2022/09/19 04:17:32;;;;;;;;;;;;;;;16.09;51.25;99067.22;4486613;31;32908;-66
2022/09/19 04:20:00;;;;;;;;;;;;;;;16.29;50.60;99073.13;4473607;31;34026;-65
2022/09/19 04:22:28;;;;;;;;;;;;;;;16.35;50.20;99075.16;4482252;31;34526;-65
2022/09/19 04:24:55;;;;;;;;;;;;;;;16.44;49.94;99076.88;4484978;31;33276;-65
2022/09/19 04:27:23;;;;;;;;;;;;;;;16.48;49.81;99067.41;4485654;31;33926;-66
2022/09/19 04:29:51;;;;;;;;;;;;;;;16.59;49.46;99068.91;4494145;31;34244;-66
2022/09/19 04:32:18;;;;;;;;;;;;;;;16.64;49.33;99069.25;4487898;31;34745;-65
2022/09/19 04:34:47;;;;;;;;;;;;;;;16.62;49.38;99062.31;4483988;31;32918;-66
2022/09/19 04:37:15;;;;;;;;;;;;;;;16.67;49.13;99057.28;4487512;31;33921;-66
2022/09/19 04:39:47;;;;;;;;;;;;;;;16.64;49.37;99054.91;4485382;31;34230;-66
2022/09/19 04:42:18;;;;;;;;;;;;;;;16.53;49.64;99056.06;4487144;31;33903;-65
2022/09/19 04:44:45;;;;;;;;;;;;;;;16.22;50.11;99053.22;4489242;31;32500;-66
2022/09/19 04:47:14;;;;;;;;;;;;;;;16.15;50.48;99061.16;4491462;31;33730;-66
2022/09/19 04:49:42;;;;;;;;;;;;;;;16.35;50.20;99056.25;4486938;31;34392;-66
2022/09/19 04:52:13;;;;;;;;;;;;;;;16.53;50.17;99059.66;4485328;31;32165;-65
2022/09/19 04:54:41;;;;;;;;;;;;;;;16.69;50.18;99060.62;4485260;31;34626;-65
2022/09/19 04:57:09;;;;;;;;;;;;;;;16.78;50.61;99059.62;4484635;31;34237;-66
2022/09/19 04:59:37;;;;;;;;;;;;;;;16.77;50.36;99064.19;4484950;31;35335;-64
2022/09/19 05:02:06;;;;;;;;;;;;;;;16.83;51.29;99067.25;4484820;31;33985;-65
2022/09/19 05:04:35;;;;;;;;;;;;;;;16.82;51.50;99076.34;4482742;31;31814;-65
2022/09/19 05:07:02;;;;;;;;;;;;;;;16.74;51.96;99074.47;4488156;31;32533;-64
2022/09/19 05:09:30;;;;;;;;;;;;;;;16.75;52.23;99087.00;4493250;31;33345;-65
2022/09/19 05:11:58;;;;;;;;;;;;;;;16.68;52.56;99086.81;4485180;31;35024;-64
2022/09/19 05:14:26;;;;;;;;;;;;;;;17.03;51.40;99097.44;4485495;31;33101;-64
2022/09/19 05:16:55;;;;;;;;;;;;;;;17.03;51.67;99108.25;4485200;31;33995;-65
2022/09/19 05:19:22;;;;;;;;;;;;;;;16.99;51.89;99107.75;4491879;31;33808;-65
2022/09/19 05:21:51;;;;;;;;;;;;;;;16.99;51.97;99113.16;4490222;31;34157;-65
2022/09/19 05:24:18;;;;;;;;;;;;;;;16.98;52.06;99123.16;4484768;31;33328;-65
2022/09/19 05:26:46;;;;;;;;;;;;;;;17.03;52.22;99121.78;4489686;31;34100;-64
2022/09/19 05:29:14;;;;;;;;;;;;;;;16.94;51.70;99126.34;4477746;31;35399;-64
2022/09/19 05:31:45;;;;;;;;;;;;;;;16.65;52.03;99127.66;4486995;31;32784;-65
2022/09/19 05:34:13;;;;;;;;;;;;;;;16.53;51.86;99127.19;4470523;32;33431;-65
2022/09/19 05:36:41;;;;;;;;;;;;;;;16.57;52.16;99127.69;4468713;31;33714;-65
2022/09/19 05:39:09;;;;;;;;;;;;;;;16.60;52.06;99123.81;4482025;31;34192;-65
2022/09/19 05:41:38;;;;;;;;;;;;;;;16.55;52.59;99132.41;4489020;31;34916;-64
2022/09/19 05:44:06;;;;;;;;;;;;;;;16.48;52.27;99131.38;4482518;31;34503;-64
2022/09/19 05:46:34;;;;;;;;;;;;;;;16.30;52.80;99145.03;4483755;31;33940;-64
2022/09/19 05:49:01;;;;;;;;;;;;;;;16.34;52.85;99138.31;4486015;31;34088;-64
2022/09/19 05:51:30;;;;;;;;;;;;;;;16.37;52.90;99139.78;4482622;31;34961;-65
2022/09/19 05:53:57;;;;;;;;;;;;;;;16.32;53.22;99134.91;4483696;31;34447;-64
2022/09/19 05:56:25;;;;;;;;;;;;;;;16.00;54.56;99139.22;4492780;31;34084;-64
2022/09/19 05:58:56;;;;;;;;;;;;;;;16.12;54.24;99141.63;4485439;31;34228;-64
2022/09/19 06:01:24;;;;;;;;;;;;;;;16.15;54.13;99144.84;4493549;31;32876;-64
2022/09/19 06:03:52;;;;;;;;;;;;;;;16.24;53.32;99132.19;4483975;31;31894;-64
2022/09/19 06:06:20;;;;;;;;;;;;;;;16.12;53.95;99141.63;4483736;31;34889;-63
2022/09/19 06:08:53;;;;;;;;;;;;;;;16.04;54.23;99147.84;4488919;31;34136;-63
2022/09/19 06:11:21;;;;;;;;;;;;;;;15.66;56.08;99135.69;4491929;31;34042;-63
2022/09/19 06:16:37;;;;;;;;;;;;;;;15.46;55.31;99145.88;4485713;31;33950;-63
2022/09/19 06:19:07;;;;;;;;;;;;;;;14.78;57.60;99146.59;4481473;31;32094;-64
2022/09/19 06:21:34;;;;;;;;;;;;;;;14.79;57.23;99142.91;4487220;31;34835;-63
2022/09/19 06:24:02;;;;;;;;;;;;;;;14.78;57.37;99142.06;4476177;31;33439;-63
2022/09/19 06:26:30;;;;;;;;;;;;;;;14.49;58.10;99150.38;4498914;31;33762;-64
2022/09/19 06:28:57;;;;;;;;;;;;;;;15.00;57.32;99148.78;4482355;31;33907;-63
2022/09/19 06:31:25;;;;;;;;;;;;;;;15.35;56.36;99153.25;4484762;31;33893;-63
2022/09/19 06:33:52;;;;;;;;;;;;;;;15.24;56.78;99158.88;4473983;31;33024;-63
2022/09/19 06:36:20;;;;;;;;;;;;;;;15.37;56.37;99155.75;4483538;31;32820;-63
2022/09/19 06:38:47;;;;;;;;;;;;;;;14.38;59.13;99164.91;4484143;31;34203;-63
2022/09/19 06:41:16;;;;;;;;;;;;;;;14.94;57.83;99162.91;4498112;31;33117;-62
2022/09/19 06:43:46;;;;;;;;;;;;;;;14.81;58.22;99167.84;4486867;31;34531;-65
2022/09/19 06:46:14;;;;;;;;;;;;;;;14.86;58.31;99176.28;4486226;31;34930;-62
2022/09/19 06:48:43;;;;;;;;;;;;;;;14.99;57.93;99174.06;4485219;31;35184;-62
2022/09/19 06:51:13;;;;;;;;;;;;;;;15.11;57.90;99175.47;4486118;31;34039;-62
2022/09/19 06:53:40;;;;;;;;;;;;;;;14.63;59.19;99176.75;4490838;31;32189;-62
2022/09/19 06:56:08;;;;;;;;;;;;;;;14.98;58.75;99175.03;4481355;31;34023;-63
2022/09/19 06:58:37;;;;;;;;;;;;;;;14.88;58.72;99174.28;4485176;31;35496;-62
2022/09/19 07:01:05;;;;;;;;;;;;;;;15.13;58.05;99172.63;4482363;31;32827;-62
2022/09/19 07:03:34;;;;;;;;;;;;;;;14.63;59.40;99181.31;4482068;31;32535;-62
2022/09/19 07:06:01;;;;;;;;;;;;;;;13.64;62.12;99186.56;4481250;31;34263;-63
2022/09/19 07:08:30;;;;;;;;;;;;;;;13.95;61.91;99187.97;4493568;31;34378;-63
2022/09/19 07:10:58;;;;;;;;;;;;;;;14.73;59.25;99192.00;4484988;31;34147;-62
2022/09/19 07:13:25;;;;;;;;;;;;;;;14.16;60.90;99186.88;4494258;31;33266;-63
2022/09/19 07:16:01;;;;;;;;;;;;;;;14.73;59.22;99186.63;4491354;31;33757;-62
2022/09/19 07:18:33;;;;;;;;;;;;;;;14.05;61.66;99185.22;4486725;31;33867;-62
2022/09/19 07:21:07;;;;;;;;;;;;;;;14.75;59.30;99188.16;4482704;31;33231;-63
2022/09/19 07:23:37;;;;;;;;;;;;;;;15.14;58.46;99185.94;4484501;31;33319;-62
2022/09/19 07:26:05;;;;;;;;;;;;;;;15.09;59.16;99182.91;4486303;31;35257;-63
2022/09/19 07:28:32;;;;;;;;;;;;;;;15.15;59.11;99181.41;4484300;31;34297;-63
2022/09/19 07:31:01;;;;;;;;;;;;;;;15.02;58.48;99173.72;4484832;31;33207;-62
2022/09/19 07:33:30;;;;;;;;;;;;;;;14.92;59.24;99183.75;4453473;31;928437;-63
2022/09/19 07:35:58;;;;;;;;;;;;;;;15.19;59.24;99181.94;4482685;31;34647;-63
2022/09/19 07:38:29;;;;;;;;;;;;;;;15.28;57.97;99189.06;4476198;31;34064;-62
2022/09/19 07:40:59;;;;;;;;;;;;;;;14.75;59.19;99188.16;4483270;31;33753;-62
2022/09/19 07:43:26;;;;;;;;;;;;;;;15.14;59.05;99188.62;4486401;31;32874;-63
2022/09/19 07:45:54;;;;;;;;;;;;;;;14.43;60.93;99185.97;4492075;31;34146;-63
2022/09/19 07:48:22;;;;;;;;;;;;;;;14.49;61.27;99182.66;4485549;31;33627;-62
2022/09/19 07:50:50;;;;;;;;;;;;;;;14.60;61.82;99181.62;4481391;31;34455;-62
2022/09/19 07:53:24;;;;;;;;;;;;;;;14.84;61.32;99184.53;4497076;31;33848;-63
2022/09/19 07:55:52;;;;;;;;;;;;;;;15.25;60.52;99190.25;4495349;31;34100;-63
2022/09/19 07:58:20;;;;;;;;;;;;;;;15.13;58.93;99191.50;4493622;31;34019;-62
2022/09/19 08:00:49;;;;;;;;;;;;;;;15.14;58.04;99214.75;4485279;31;35547;-63
2022/09/19 08:03:22;;;;;;;;;;;;;;;14.84;59.63;99214.19;4493268;31;33278;-63
2022/09/19 08:05:50;;;;;;;;;;;;;;;14.53;62.22;99219.09;4484905;31;34082;-63
2022/09/19 08:08:18;;;;;;;;;;;;;;;14.68;60.21;99212.19;4487938;31;35295;-63
2022/09/19 08:10:45;;;;;;;;;;;;;;;14.57;59.83;99225.00;4469384;31;33912;-63
2022/09/19 08:13:15;;;;;;;;;;;;;;;14.98;58.32;99220.84;4493139;31;32135;-63
2022/09/19 08:15:43;;;;;;;;;;;;;;;14.85;56.17;99206.94;4495263;31;32668;-63
2022/09/19 08:18:13;;;;;;;;;;;;;;;14.99;57.34;99217.19;4496169;31;34056;-63
2022/09/19 08:20:41;;;;;;;;;;;;;;;14.89;55.96;99219.09;4485295;31;33042;-63
2022/09/19 08:23:12;;;;;;;;;;;;;;;14.70;55.84;99219.25;4477815;32;34427;-63
2022/09/19 08:25:43;;;;;;;;;;;;;;;14.24;57.00;99221.09;4489965;31;35212;-63
2022/09/19 08:28:10;;;;;;;;;;;;;;;13.35;57.23;99226.97;4492412;31;35133;-63
2022/09/19 08:30:38;;;;;;;;;;;;;;;13.48;57.97;99228.38;4485901;31;34055;-62
2022/09/19 08:33:07;;;;;;;;;;;;;;;13.56;55.46;99238.37;4489569;31;33551;-63
2022/09/19 08:35:40;;;;;;;;;;;;;;;13.49;55.17;99240.81;4494836;31;35333;-63
2022/09/19 08:38:10;;;;;;;;;;;;;;;13.92;54.96;99246.59;4492835;31;35198;-63
2022/09/19 08:40:38;;;;;;;;;;;;;;;14.14;53.73;99246.22;4492411;31;33973;-63
2022/09/19 08:43:10;;;;;;;;;;;;;;;14.51;54.08;99242.66;4488709;31;32782;-63
2022/09/19 08:45:57;;;;;;;;;;;;;;;13.99;56.28;99237.78;4495751;31;34212;-62
2022/09/19 08:48:27;;;;;;;;;;;;;;;14.18;54.90;99247.59;4492041;31;32973;-63
2022/09/19 08:50:57;;;;;;;;;;;;;;;14.64;55.66;99242.28;4483349;31;34276;-62
2022/09/19 08:53:27;;;;;;;;;;;;;;;14.38;52.23;99242.97;4474606;31;34805;-62
2022/09/19 08:55:55;;;;;;;;;;;;;;;14.49;50.47;99241.91;4487596;31;33776;-62
2022/09/19 08:58:23;;;;;;;;;;;;;;;14.16;52.60;99259.53;4475593;31;35881;-63
2022/09/19 09:00:53;;;;;;;;;;;;;;;14.25;52.82;99249.69;4492179;31;34745;-63
2022/09/19 09:03:24;;;;;;;;;;;;;;;14.83;51.20;99250.22;4477205;31;32238;-62
2022/09/19 09:05:57;;;;;;;;;;;;;;;14.92;51.01;99248.41;4473143;32;33395;-63
2022/09/19 09:08:24;;;;;;;;;;;;;;;15.01;51.53;99250.19;4486676;31;34793;-62
2022/09/19 09:10:54;;;;;;;;;;;;;;;15.43;51.33;99246.81;4493816;31;33422;-62
2022/09/19 09:13:41;;;;;;;;;;;;;;;15.15;49.35;99259.56;4482060;31;32076;-63
2022/09/19 09:16:31;;;;;;;;;;;;;;;15.17;49.97;99268.34;4488280;31;34057;-63
2022/09/19 09:19:08;;;;;;;;;;;;;;;15.19;48.51;99268.22;4477665;31;32829;-63
2022/09/19 09:21:36;;;;;;;;;;;;;;;15.14;49.56;99264.13;4488003;31;34686;-62
2022/09/19 09:24:07;;;;;;;;;;;;;;;15.47;47.97;99263.53;4486750;31;34069;-63
2022/09/19 09:26:57;;;;;;;;;;;;;;;15.04;49.62;99268.75;4479881;31;33283;-63
2022/09/19 09:29:28;;;;;;;;;;;;;;;15.20;47.81;99261.81;4471388;32;34187;-63
2022/09/19 09:32:04;;;;;;;;;;;;;;;14.57;49.63;99263.56;4487711;31;33691;-63
2022/09/19 09:34:49;;;;;;;;;;;;;;;14.52;49.09;99265.03;4475028;31;33884;-63
2022/09/19 09:37:20;;;;;;;;;;;;;;;15.29;49.05;99258.19;4480545;32;33922;-63
2022/09/19 09:40:09;;;;;;;;;;;;;;;15.43;48.29;99267.53;4499350;31;34400;-63
2022/09/19 09:42:43;;;;;;;;;;;;;;;15.69;46.58;99270.28;4497277;31;35209;-63
2022/09/19 09:45:15;;;;;;;;;;;;;;;15.14;47.17;99266.81;4488306;31;33384;-63
2022/09/19 09:47:49;;;;;;;;;;;;;;;15.30;47.06;99266.09;4486015;31;35282;-63
2022/09/19 09:50:34;;;;;;;;;;;;;;;14.99;48.52;99264.81;4498634;31;35402;-63
2022/09/19 09:53:08;;;;;;;;;;;;;;;15.04;48.90;99271.44;4487815;31;34132;-63
2022/09/19 09:58:31;;;;;;;;;;;;;;;15.38;47.61;99268.03;4481291;31;34162;-63
2022/09/19 10:04:13;;;;;;;;;;;;;;;15.37;48.04;99263.63;4420290;32;33546;-64
2022/09/19 10:06:43;;;;;;;;;;;;;;;15.76;48.53;99282.13;4413546;32;33395;-63
2022/09/19 10:09:13;;;;;;;;;;;;;;;14.79;54.41;99310.75;4453994;31;34232;-63
2022/09/19 10:11:45;;;;;;;;;;;;;;;14.70;57.37;99303.59;4478739;31;33375;-63
2022/09/19 10:14:35;;;;;;;;;;;;;;;15.47;56.67;99307.50;4478140;31;33503;-63
2022/09/19 10:17:04;;;;;;;;;;;;;;;15.28;57.66;99300.47;4483371;31;33434;-63
2022/09/19 10:19:47;;;;;;;;;;;;;;;15.78;56.44;99299.84;4487679;31;35177;-63
2022/09/19 10:22:15;;;;;;;;;;;;;;;15.84;56.66;99292.97;4477884;31;34252;-63
2022/09/19 10:24:44;;;;;;;;;;;;;;;15.58;58.15;99291.09;4489035;31;32818;-63
2022/09/19 10:27:15;;;;;;;;;;;;;;;15.42;54.34;99282.88;4491129;31;33414;-63
2022/09/19 10:30:04;;;;;;;;;;;;;;;16.33;54.75;99289.69;4497348;31;33106;-63
2022/09/19 10:32:37;;;;;;;;;;;;;;;15.84;53.43;99283.03;4479521;31;34255;-63
2022/09/19 10:35:33;;;;;;;;;;;;;;;15.96;52.77;99275.50;4487718;31;35167;-63
2022/09/19 10:38:15;;;;;;;;;;;;;;;16.16;51.27;99281.50;4491777;31;33415;-63
2022/09/19 10:40:58;;;;;;;;;;;;;;;16.70;50.16;99275.78;4486536;31;35311;-63
2022/09/19 10:43:40;;;;;;;;;;;;;;;16.67;49.40;99282.38;4484924;31;34533;-62
2022/09/19 10:46:09;;;;;;;;;;;;;;;17.13;48.74;99272.00;4482157;31;35341;-63
2022/09/19 10:48:38;;;;;;;;;;;;;;;17.06;48.26;99276.37;4480533;32;33272;-64
2022/09/19 10:51:08;;;;;;;;;;;;;;;17.32;47.37;99275.38;4468510;32;36060;-63
2022/09/19 10:53:38;;;;;;;;;;;;;;;16.13;48.86;99271.03;4493179;31;33898;-63
2022/09/19 10:56:11;;;;;;;;;;;;;;;17.26;48.70;99268.78;4487167;31;33015;-63
2022/09/19 10:58:43;;;;;;;;;;;;;;;17.29;46.28;99275.72;4470682;31;33232;-63
2022/09/19 11:01:22;;;;;;;;;;;;;;;16.67;44.69;99274.25;4487593;31;34113;-64
2022/09/19 11:03:57;;;;;;;;;;;;;;;16.25;46.86;99279.69;4487170;31;34087;-63
2022/09/19 11:06:24;;;;;;;;;;;;;;;17.14;44.55;99272.84;4488077;31;32937;-63
2022/09/19 11:08:53;;;;;;;;;;;;;;;16.91;45.56;99269.94;4472891;31;33014;-63
2022/09/19 11:11:23;;;;;;;;;;;;;;;16.95;45.63;99291.09;4480523;31;34055;-63
2022/09/19 11:14:32;;;;;;;;;;;;;;;16.44;49.70;99328.06;4469960;31;34452;-63
2022/09/19 11:17:10;;;;;;;;;;;;;;;15.34;55.79;99336.72;4442074;32;32917;-63
2022/09/19 11:19:56;;;;;;;;;;;;;;;14.90;57.04;99340.19;4483145;31;32948;-63
2022/09/19 11:22:31;;;;;;;;;;;;;;;15.07;57.20;99341.22;4490712;31;34098;-63
2022/09/19 11:25:03;;;;;;;;;;;;;;;14.48;56.92;99333.59;4472613;31;34520;-63
2022/09/19 11:27:38;;;;;;;;;;;;;;;14.98;57.29;99339.44;4485364;31;34505;-62
2022/09/19 11:30:13;;;;;;;;;;;;;;;14.80;57.40;99338.56;4483872;31;33374;-62
2022/09/19 11:32:44;;;;;;;;;;;;;;;15.06;56.10;99331.44;4476539;31;33447;-63
2022/09/19 11:35:33;;;;;;;;;;;;;;;14.83;57.08;99319.38;4486291;31;33833;-62
2022/09/19 11:38:00;;;;;;;;;;;;;;;14.57;57.94;99312.03;4468720;31;34308;-63
2022/09/19 11:40:34;;;;;;;;;;;;;;;14.39;59.10;99320.06;4483040;31;33242;-63
2022/09/19 11:43:30;;;;;;;;;;;;;;;14.14;61.33;99326.97;4489301;31;33217;-63
2022/09/19 11:46:08;;;;;;;;;;;;;;;14.83;59.37;99324.78;4468576;31;32857;-63
2022/09/19 11:48:36;;;;;;;;;;;;;;;14.99;60.69;99329.50;4475274;31;33436;-63
2022/09/19 11:51:03;;;;;;;;;;;;;;;15.00;58.50;99332.06;4488003;31;32162;-62
2022/09/19 11:53:32;;;;;;;;;;;;;;;15.01;59.29;99325.66;4485759;31;33974;-63
2022/09/19 11:56:14;;;;;;;;;;;;;;;14.82;57.88;99325.78;4496462;31;35301;-63
2022/09/19 11:58:46;;;;;;;;;;;;;;;14.15;60.24;99339.41;4486177;31;32981;-62
2022/09/19 12:01:38;;;;;;;;;;;;;;;14.61;56.95;99345.78;4494136;31;33705;-63
2022/09/19 12:04:10;;;;;;;;;;;;;;;13.79;58.20;99337.56;4478854;31;35233;-63
2022/09/19 12:06:57;;;;;;;;;;;;;;;14.23;57.01;99344.06;4486581;31;35158;-63
2022/09/19 12:09:28;;;;;;;;;;;;;;;13.99;58.82;99347.25;4484014;31;32748;-63
2022/09/19 12:12:00;;;;;;;;;;;;;;;14.34;57.42;99335.78;4486975;31;33675;-62
2022/09/19 12:14:32;;;;;;;;;;;;;;;14.57;57.90;99347.03;4475395;31;33364;-64
2022/09/19 12:17:12;;;;;;;;;;;;;;;14.15;57.39;99343.94;4478240;32;34173;-63
2022/09/19 12:19:45;;;;;;;;;;;;;;;14.27;58.28;99340.09;4467966;31;34087;-63
2022/09/19 12:22:19;;;;;;;;;;;;;;;14.57;56.78;99348.91;4484910;31;34357;-63
2022/09/19 12:25:01;;;;;;;;;;;;;;;14.63;56.55;99346.44;4483906;31;33986;-63
2022/09/19 12:27:31;;;;;;;;;;;;;;;15.01;55.80;99349.91;4474588;32;34379;-63
2022/09/19 12:30:13;;;;;;;;;;;;;;;14.89;55.85;99343.03;4484855;31;34240;-62
2022/09/19 12:32:43;;;;;;;;;;;;;;;14.41;57.60;99350.38;4474634;31;33348;-63
2022/09/19 12:35:34;;;;;;;;;;;;;;;14.66;55.01;99348.84;4475928;31;33341;-62
2022/09/19 12:38:04;;;;;;;;;;;;;;;14.56;56.11;99348.06;4481651;31;35658;-62
2022/09/19 12:40:47;;;;;;;;;;;;;;;13.92;58.65;99351.53;4487942;31;32846;-62
2022/09/19 12:43:36;;;;;;;;;;;;;;;14.41;58.11;99350.38;4478997;31;32052;-62
2022/09/19 12:46:23;;;;;;;;;;;;;;;14.48;57.11;99345.25;4485108;31;34204;-63
2022/09/19 12:48:57;;;;;;;;;;;;;;;14.23;58.52;99341.38;4496751;31;33006;-63
2022/09/19 12:51:32;;;;;;;;;;;;;;;15.45;55.02;99343.75;4493016;31;33914;-62
2022/09/19 12:54:09;;;;;;;;;;;;;;;15.19;53.68;99347.22;4476918;32;33238;-63
2022/09/19 12:56:38;;;;;;;;;;;;;;;15.42;53.71;99339.50;4471659;31;35248;-63
2022/09/19 12:59:09;;;;;;;;;;;;;;;14.74;54.51;99349.97;4492533;31;34013;-62
2022/09/19 13:01:42;;;;;;;;;;;;;;;15.65;50.85;99353.34;4489485;31;35311;-63
2022/09/19 13:04:13;;;;;;;;;;;;;;;14.94;52.81;99353.37;4495812;31;34331;-63
2022/09/19 13:06:42;;;;;;;;;;;;;;;14.85;52.14;99344.34;4471059;31;32972;-63
2022/09/19 13:09:12;;;;;;;;;;;;;;;15.64;51.59;99340.03;4477787;31;34093;-62
2022/09/19 13:11:39;;;;;;;;;;;;;;;15.77;51.58;99327.84;4479218;32;32667;-63
2022/09/19 13:14:17;;;;;;;;;;;;;;;15.52;50.30;99320.53;4494876;31;34369;-64
2022/09/19 13:25:08;;;;;;;;;;;;;;;16.00;50.57;99333.56;4474347;31;33603;-63
2022/09/19 13:27:35;;;;;;;;;;;;;;;15.90;50.16;99329.28;4484253;31;32739;-63
2022/09/19 13:30:03;;;;;;;;;;;;;;;16.15;50.29;99324.88;4497480;31;34227;-63
2022/09/19 13:32:53;;;;;;;;;;;;;;;16.04;48.59;99324.13;4486083;31;33996;-63